Aérodrome :
LOGIN :

S'inscrire | Disclaimer

   EN    FR    IT 

 










Légende :    VFR   VFR Marginal   IFR   IFR Intensif   IFR Très Intensif
Visi : 
Plafond : 
>= 8 km
>= 3000ft
5 à 8 km
1000 à 3000 ft
1500m à 5 km
500 à 1000 ft
800 à 1500m
200 à 500 ft
< 800m
< 200 ft
Symboles :   Orages  Brouillard  Fortes neiges  Fortes précipitations  Vent > 20 kt
SIGMETs :   Divers  Orages  Givrage  Turbulence  Onde Orograph.  Cendres Volcan.







- Altitude de l'aérodrome : 56 ft
- Code IATA : BZR
- Voir les cartes d'approche


LFMU - Beziers / Vias

DERNIER METAR :
  • 260700Z AUTO 04011KT CAVOK 09/07 Q1018 NOSIG

METARs EXPIRÉS :
  • 260630Z AUTO 03010KT CAVOK 08/07 Q1018 NOSIG
  • 260600Z AUTO 03008KT CAVOK 08/07 Q1017 NOSIG
  • 260530Z AUTO 03010KT CAVOK 08/07 Q1017 BECMG 18005KT
  • 260500Z AUTO 02010KT CAVOK 08/06 Q1017 BECMG 18005KT
  • 260430Z AUTO 02009KT CAVOK 07/06 Q1017 NOSIG

TAF AMD TAF LFMU
Valide du 26 à 05h jusqu'au 27 à 03h UTC


260526Z 2605/2703 03010KT CAVOK
BECMG 2611/2613 10010KT
BECMG 2619/2622 VRB02KT 4000 BR
ATIS : +33 4 67 90 88 88
Pas de NOTAMs connus pour ce terrain.



MET'MAP, la Météo Aéronautique d'un coup d'oeil ! - Copyright ORBIFLY Décembre 2007 - Disclaimer

ORBIFLY MET'MAP TEAM :

Programmation & Développement : Alexandra Zaïnal
Conception & Développement : Baudouin d'Aumeries
Co-Programmation & Développement : Marc-Olivier Méhu
Soutien technique & logistique : Manuel Goepfert

Contact : metmap@orbifly.com




SOURCES & CREDITS :

   NOAA